sensor_id;sensor_type;location;lat;lon;timestamp;pressure;altitude;pressure_sealevel;temperature;humidity
52855;BME280;38719;51.418;7.286;2022-12-07T00:01:59;99859.25;;;5.97;78.60
52855;BME280;38719;51.418;7.286;2022-12-07T00:04:28;99853.44;;;5.84;78.76
52855;BME280;38719;51.418;7.286;2022-12-07T00:06:56;99855.16;;;5.85;78.74
52855;BME280;38719;51.418;7.286;2022-12-07T00:09:23;99856.09;;;5.84;78.42
52855;BME280;38719;51.418;7.286;2022-12-07T00:11:51;99851.94;;;5.74;79.18
52855;BME280;38719;51.418;7.286;2022-12-07T00:14:20;99850.97;;;5.78;79.77
52855;BME280;38719;51.418;7.286;2022-12-07T00:16:49;99850.75;;;5.86;79.24
52855;BME280;38719;51.418;7.286;2022-12-07T00:19:17;99849.44;;;6.02;78.67
52855;BME280;38719;51.418;7.286;2022-12-07T00:21:45;99854.97;;;5.91;78.47
52855;BME280;38719;51.418;7.286;2022-12-07T00:24:13;99853.28;;;5.89;79.18
52855;BME280;38719;51.418;7.286;2022-12-07T00:26:41;99855.56;;;6.04;77.96
52855;BME280;38719;51.418;7.286;2022-12-07T00:29:13;99848.72;;;5.95;78.38
52855;BME280;38719;51.418;7.286;2022-12-07T00:31:42;99847.38;;;5.80;79.40
52855;BME280;38719;51.418;7.286;2022-12-07T00:34:12;99853.88;;;6.02;78.61
52855;BME280;38719;51.418;7.286;2022-12-07T00:36:40;99847.63;;;6.04;78.27
52855;BME280;38719;51.418;7.286;2022-12-07T00:39:09;99840.59;;;6.03;78.41
52855;BME280;38719;51.418;7.286;2022-12-07T00:41:36;99845.59;;;6.12;78.41
52855;BME280;38719;51.418;7.286;2022-12-07T00:44:04;99841.09;;;6.18;77.60
52855;BME280;38719;51.418;7.286;2022-12-07T00:46:32;99842.16;;;6.10;78.44
52855;BME280;38719;51.418;7.286;2022-12-07T00:48:59;99839.56;;;6.09;77.23
52855;BME280;38719;51.418;7.286;2022-12-07T00:51:27;99838.06;;;5.99;77.96
52855;BME280;38719;51.418;7.286;2022-12-07T00:53:55;99828.38;;;5.99;78.31
52855;BME280;38719;51.418;7.286;2022-12-07T00:56:25;99834.63;;;5.95;78.85
52855;BME280;38719;51.418;7.286;2022-12-07T00:58:54;99831.91;;;5.98;79.07
52855;BME280;38719;51.418;7.286;2022-12-07T01:01:23;99827.94;;;6.15;77.72
52855;BME280;38719;51.418;7.286;2022-12-07T01:03:51;99830.16;;;6.30;77.67
52855;BME280;38719;51.418;7.286;2022-12-07T01:06:20;99826.53;;;6.01;78.60
52855;BME280;38719;51.418;7.286;2022-12-07T01:08:48;99826.19;;;6.13;78.71
52855;BME280;38719;51.418;7.286;2022-12-07T01:11:18;99825.75;;;6.29;77.72
52855;BME280;38719;51.418;7.286;2022-12-07T01:13:48;99823.19;;;6.27;77.20
52855;BME280;38719;51.418;7.286;2022-12-07T01:16:16;99836.22;;;6.34;77.26
52855;BME280;38719;51.418;7.286;2022-12-07T01:18:46;99830.69;;;6.11;78.69
52855;BME280;38719;51.418;7.286;2022-12-07T01:21:16;99830.16;;;5.97;78.90
52855;BME280;38719;51.418;7.286;2022-12-07T01:23:44;99826.34;;;6.09;78.29
52855;BME280;38719;51.418;7.286;2022-12-07T01:26:14;99828.38;;;5.99;79.12
52855;BME280;38719;51.418;7.286;2022-12-07T01:28:42;99823.19;;;5.94;79.34
52855;BME280;38719;51.418;7.286;2022-12-07T01:31:13;99823.72;;;6.09;79.20
52855;BME280;38719;51.418;7.286;2022-12-07T01:33:43;99827.88;;;6.16;78.70
52855;BME280;38719;51.418;7.286;2022-12-07T01:36:14;99826.19;;;6.15;78.82
52855;BME280;38719;51.418;7.286;2022-12-07T01:38:42;99826.13;;;6.17;78.08
52855;BME280;38719;51.418;7.286;2022-12-07T01:41:10;99821.47;;;6.25;78.57
52855;BME280;38719;51.418;7.286;2022-12-07T01:44:10;99830.69;;;6.41;78.26
52855;BME280;38719;51.418;7.286;2022-12-07T01:46:40;99826.66;;;6.28;77.58
52855;BME280;38719;51.418;7.286;2022-12-07T01:49:10;99828.72;;;6.18;78.35
52855;BME280;38719;51.418;7.286;2022-12-07T01:51:40;99831.66;;;6.07;78.49
52855;BME280;38719;51.418;7.286;2022-12-07T01:54:10;99831.53;;;6.12;79.43
52855;BME280;38719;51.418;7.286;2022-12-07T01:56:40;99822.69;;;6.13;79.17
52855;BME280;38719;51.418;7.286;2022-12-07T01:59:09;99823.59;;;6.12;78.30
52855;BME280;38719;51.418;7.286;2022-12-07T02:01:38;99825.91;;;5.91;79.67
52855;BME280;38719;51.418;7.286;2022-12-07T02:04:06;99826.19;;;6.13;79.49
52855;BME280;38719;51.418;7.286;2022-12-07T02:06:34;99824.09;;;6.25;78.57
52855;BME280;38719;51.418;7.286;2022-12-07T02:09:04;99821.63;;;6.19;78.28
52855;BME280;38719;51.418;7.286;2022-12-07T02:11:31;99819.81;;;6.21;78.85
52855;BME280;38719;51.418;7.286;2022-12-07T02:13:58;99814.72;;;6.15;78.69
52855;BME280;38719;51.418;7.286;2022-12-07T02:16:32;99804.66;;;6.27;78.30
52855;BME280;38719;51.418;7.286;2022-12-07T02:19:21;99809.91;;;6.29;79.09
52855;BME280;38719;51.418;7.286;2022-12-07T02:21:53;99815.97;;;6.33;78.10
52855;BME280;38719;51.418;7.286;2022-12-07T02:24:45;99806.94;;;6.40;77.39
52855;BME280;38719;51.418;7.286;2022-12-07T02:27:36;99812.94;;;6.45;77.66
52855;BME280;38719;51.418;7.286;2022-12-07T02:30:08;99815.63;;;6.43;77.55
52855;BME280;38719;51.418;7.286;2022-12-07T02:32:42;99811.53;;;6.33;77.63
52855;BME280;38719;51.418;7.286;2022-12-07T02:35:15;99817.53;;;6.38;77.66
52855;BME280;38719;51.418;7.286;2022-12-07T02:37:51;99820.13;;;6.41;76.88
52855;BME280;38719;51.418;7.286;2022-12-07T02:40:26;99829.41;;;6.55;77.69
52855;BME280;38719;51.418;7.286;2022-12-07T02:42:58;99821.59;;;6.50;77.23
52855;BME280;38719;51.418;7.286;2022-12-07T02:45:31;99822.91;;;6.65;76.91
52855;BME280;38719;51.418;7.286;2022-12-07T02:48:00;99819.44;;;6.63;76.40
52855;BME280;38719;51.418;7.286;2022-12-07T02:50:28;99818.91;;;6.52;76.64
52855;BME280;38719;51.418;7.286;2022-12-07T02:52:55;99824.34;;;6.47;76.99
52855;BME280;38719;51.418;7.286;2022-12-07T02:55:28;99819.69;;;6.55;77.40
52855;BME280;38719;51.418;7.286;2022-12-07T02:58:11;99822.50;;;6.49;77.01
52855;BME280;38719;51.418;7.286;2022-12-07T03:00:56;99823.19;;;6.56;76.88
52855;BME280;38719;51.418;7.286;2022-12-07T03:03:28;99816.38;;;6.49;77.58
52855;BME280;38719;51.418;7.286;2022-12-07T03:06:07;99818.66;;;6.59;76.88
52855;BME280;38719;51.418;7.286;2022-12-07T03:08:44;99825.47;;;6.68;75.90
52855;BME280;38719;51.418;7.286;2022-12-07T03:11:16;99823.97;;;6.59;76.54
52855;BME280;38719;51.418;7.286;2022-12-07T03:13:49;99829.22;;;6.61;75.80
52855;BME280;38719;51.418;7.286;2022-12-07T03:16:24;99821.38;;;6.58;76.52
52855;BME280;38719;51.418;7.286;2022-12-07T03:18:55;99819.19;;;6.42;75.97
52855;BME280;38719;51.418;7.286;2022-12-07T03:21:27;99814.69;;;6.46;76.65
52855;BME280;38719;51.418;7.286;2022-12-07T03:23:56;99814.03;;;6.38;76.60
52855;BME280;38719;51.418;7.286;2022-12-07T03:26:30;99818.91;;;6.22;76.40
52855;BME280;38719;51.418;7.286;2022-12-07T03:29:02;99818.38;;;6.40;76.20
52855;BME280;38719;51.418;7.286;2022-12-07T03:31:36;99818.38;;;6.40;76.16
52855;BME280;38719;51.418;7.286;2022-12-07T03:34:09;99818.66;;;6.61;75.76
52855;BME280;38719;51.418;7.286;2022-12-07T03:36:42;99815.31;;;6.54;75.13
52855;BME280;38719;51.418;7.286;2022-12-07T03:39:17;99815.31;;;6.54;75.32
52855;BME280;38719;51.418;7.286;2022-12-07T03:41:49;99814.25;;;6.60;75.44
52855;BME280;38719;51.418;7.286;2022-12-07T03:44:17;99817.28;;;6.48;75.81
52855;BME280;38719;51.418;7.286;2022-12-07T03:46:52;99814.94;;;6.37;76.02
52855;BME280;38719;51.418;7.286;2022-12-07T03:49:29;99805.50;;;6.28;76.03
52855;BME280;38719;51.418;7.286;2022-12-07T03:52:02;99811.44;;;6.36;76.25
52855;BME280;38719;51.418;7.286;2022-12-07T03:54:36;99813.63;;;6.22;76.38
52855;BME280;38719;51.418;7.286;2022-12-07T03:57:07;99818.09;;;6.20;76.23
52855;BME280;38719;51.418;7.286;2022-12-07T03:59:37;99813.44;;;6.28;75.67
52855;BME280;38719;51.418;7.286;2022-12-07T04:02:07;99808.47;;;6.17;76.22
52855;BME280;38719;51.418;7.286;2022-12-07T04:04:35;99815.13;;;6.31;76.28
52855;BME280;38719;51.418;7.286;2022-12-07T04:07:02;99809.34;;;6.18;76.70
52855;BME280;38719;51.418;7.286;2022-12-07T04:09:30;99813.88;;;6.12;76.51
52855;BME280;38719;51.418;7.286;2022-12-07T04:11:57;99815.91;;;6.04;76.91
52855;BME280;38719;51.418;7.286;2022-12-07T04:14:25;99813.09;;;6.10;75.89
52855;BME280;38719;51.418;7.286;2022-12-07T04:16:54;99812.28;;;6.07;76.42
52855;BME280;38719;51.418;7.286;2022-12-07T04:19:26;99809.97;;;5.94;76.31
52855;BME280;38719;51.418;7.286;2022-12-07T04:21:54;99806.97;;;6.08;76.32
52855;BME280;38719;51.418;7.286;2022-12-07T04:24:22;99804.38;;;6.07;76.52
52855;BME280;38719;51.418;7.286;2022-12-07T04:26:49;99812.75;;;5.90;75.97
52855;BME280;38719;51.418;7.286;2022-12-07T04:29:18;99803.72;;;5.99;76.96
52855;BME280;38719;51.418;7.286;2022-12-07T04:31:45;99809.19;;;5.91;76.86
52855;BME280;38719;51.418;7.286;2022-12-07T04:34:14;99799.94;;;6.07;76.23
52855;BME280;38719;51.418;7.286;2022-12-07T04:36:44;99794.81;;;6.01;76.06
52855;BME280;38719;51.418;7.286;2022-12-07T04:39:18;99803.06;;;5.89;76.43
52855;BME280;38719;51.418;7.286;2022-12-07T04:41:46;99806.63;;;5.88;76.68
52855;BME280;38719;51.418;7.286;2022-12-07T04:44:14;99807.72;;;5.80;77.19
52855;BME280;38719;51.418;7.286;2022-12-07T04:46:42;99801.16;;;5.94;76.84
52855;BME280;38719;51.418;7.286;2022-12-07T04:49:10;99807.88;;;6.07;76.31
52855;BME280;38719;51.418;7.286;2022-12-07T04:51:38;99806.13;;;6.06;75.51
52855;BME280;38719;51.418;7.286;2022-12-07T04:54:08;99809.53;;;6.11;76.09
52855;BME280;38719;51.418;7.286;2022-12-07T04:56:35;99804.38;;;6.07;75.22
52855;BME280;38719;51.418;7.286;2022-12-07T04:59:03;99809.88;;;5.99;75.97
52855;BME280;38719;51.418;7.286;2022-12-07T05:01:31;99810.66;;;6.03;76.00
52855;BME280;38719;51.418;7.286;2022-12-07T05:03:59;99806.13;;;6.06;76.04
52855;BME280;38719;51.418;7.286;2022-12-07T05:06:27;99805.94;;;6.14;76.19
52855;BME280;38719;51.418;7.286;2022-12-07T05:08:54;99804.44;;;6.04;76.15
52855;BME280;38719;51.418;7.286;2022-12-07T05:11:23;99805.03;;;6.13;75.56
52855;BME280;38719;51.418;7.286;2022-12-07T05:14:09;99812.28;;;5.74;76.85
52855;BME280;38719;51.418;7.286;2022-12-07T05:16:38;99804.47;;;5.69;77.00
52855;BME280;38719;51.418;7.286;2022-12-07T05:19:07;99805.88;;;5.82;76.59
52855;BME280;38719;51.418;7.286;2022-12-07T05:21:35;99799.91;;;5.76;76.86
52855;BME280;38719;51.418;7.286;2022-12-07T05:24:03;99803.16;;;5.86;76.42
52855;BME280;38719;51.418;7.286;2022-12-07T05:26:32;99811.00;;;5.89;76.61
52855;BME280;38719;51.418;7.286;2022-12-07T05:29:00;99816.03;;;5.98;75.53
52855;BME280;38719;51.418;7.286;2022-12-07T05:31:28;99806.38;;;5.97;75.36
52855;BME280;38719;51.418;7.286;2022-12-07T05:33:56;99799.84;;;6.10;75.68
52855;BME280;38719;51.418;7.286;2022-12-07T05:36:23;99802.56;;;6.07;75.07
52855;BME280;38719;51.418;7.286;2022-12-07T05:38:51;99797.22;;;6.10;75.17
52855;BME280;38719;51.418;7.286;2022-12-07T05:41:19;99800.22;;;5.96;74.70
52855;BME280;38719;51.418;7.286;2022-12-07T05:44:06;99796.56;;;6.02;74.78
52855;BME280;38719;51.418;7.286;2022-12-07T05:46:34;99794.34;;;5.85;76.67
52855;BME280;38719;51.418;7.286;2022-12-07T05:49:02;99804.91;;;5.87;75.32
52855;BME280;38719;51.418;7.286;2022-12-07T05:51:29;99801.81;;;5.71;76.32
52855;BME280;38719;51.418;7.286;2022-12-07T05:53:57;99802.63;;;5.73;76.58
52855;BME280;38719;51.418;7.286;2022-12-07T05:56:24;99795.47;;;5.76;76.04
52855;BME280;38719;51.418;7.286;2022-12-07T05:58:53;99793.91;;;5.69;76.71
52855;BME280;38719;51.418;7.286;2022-12-07T06:01:39;99794.84;;;5.68;76.76
52855;BME280;38719;51.418;7.286;2022-12-07T06:04:07;99791.28;;;5.69;76.80
52855;BME280;38719;51.418;7.286;2022-12-07T06:06:35;99790.63;;;5.61;76.73
52855;BME280;38719;51.418;7.286;2022-12-07T06:09:02;99788.63;;;5.69;76.16
52855;BME280;38719;51.418;7.286;2022-12-07T06:11:30;99788.38;;;5.47;76.94
52855;BME280;38719;51.418;7.286;2022-12-07T06:14:15;99796.16;;;5.52;77.65
52855;BME280;38719;51.418;7.286;2022-12-07T06:16:44;99795.66;;;5.70;76.63
52855;BME280;38719;51.418;7.286;2022-12-07T06:19:12;99798.84;;;5.81;75.67
52855;BME280;38719;51.418;7.286;2022-12-07T06:21:39;99796.88;;;5.90;75.79
52855;BME280;38719;51.418;7.286;2022-12-07T06:24:07;99800.53;;;5.86;75.28
52855;BME280;38719;51.418;7.286;2022-12-07T06:26:36;99800.59;;;5.82;75.37
52855;BME280;38719;51.418;7.286;2022-12-07T06:29:03;99797.59;;;5.96;75.56
52855;BME280;38719;51.418;7.286;2022-12-07T06:31:31;99796.56;;;6.02;74.70
52855;BME280;38719;51.418;7.286;2022-12-07T06:34:01;99800.75;;;5.78;75.30
52855;BME280;38719;51.418;7.286;2022-12-07T06:36:29;99800.94;;;5.70;75.66
52855;BME280;38719;51.418;7.286;2022-12-07T06:38:57;99803.41;;;5.78;75.52
52855;BME280;38719;51.418;7.286;2022-12-07T06:41:24;99805.72;;;5.89;75.06
52855;BME280;38719;51.418;7.286;2022-12-07T06:43:52;99811.56;;;5.69;75.88
52855;BME280;38719;51.418;7.286;2022-12-07T06:46:22;99812.06;;;5.83;75.34
52855;BME280;38719;51.418;7.286;2022-12-07T06:48:50;99812.06;;;5.83;75.37
52855;BME280;38719;51.418;7.286;2022-12-07T06:51:19;99808.88;;;5.70;74.80
52855;BME280;38719;51.418;7.286;2022-12-07T06:53:46;99811.38;;;5.75;75.07
52855;BME280;38719;51.418;7.286;2022-12-07T06:56:14;99814.09;;;5.73;75.69
52855;BME280;38719;51.418;7.286;2022-12-07T06:58:42;99811.34;;;5.76;74.74
52855;BME280;38719;51.418;7.286;2022-12-07T07:01:10;99809.19;;;5.58;76.30
52855;BME280;38719;51.418;7.286;2022-12-07T07:03:38;99816.78;;;5.72;75.31
52855;BME280;38719;51.418;7.286;2022-12-07T07:06:06;99815.19;;;5.64;75.26
52855;BME280;38719;51.418;7.286;2022-12-07T07:08:36;99816.16;;;5.62;75.87
52855;BME280;38719;51.418;7.286;2022-12-07T07:11:05;99818.38;;;5.77;75.36
52855;BME280;38719;51.418;7.286;2022-12-07T07:13:32;99810.59;;;5.71;74.74
52855;BME280;38719;51.418;7.286;2022-12-07T07:16:00;99811.59;;;5.67;75.13
52855;BME280;38719;51.418;7.286;2022-12-07T07:18:28;99817.06;;;5.61;75.40
52855;BME280;38719;51.418;7.286;2022-12-07T07:20:56;99813.19;;;5.74;74.72
52855;BME280;38719;51.418;7.286;2022-12-07T07:23:23;99810.19;;;5.54;75.95
52855;BME280;38719;51.418;7.286;2022-12-07T07:25:52;99815.72;;;5.44;75.82
52855;BME280;38719;51.418;7.286;2022-12-07T07:28:20;99822.97;;;5.36;76.54
52855;BME280;38719;51.418;7.286;2022-12-07T07:30:47;99813.75;;;5.53;75.45
52855;BME280;38719;51.418;7.286;2022-12-07T07:33:15;99820.72;;;5.55;75.51
52855;BME280;38719;51.418;7.286;2022-12-07T07:35:43;99819.34;;;5.40;76.60
52855;BME280;38719;51.418;7.286;2022-12-07T07:38:10;99824.41;;;5.49;75.83
52855;BME280;38719;51.418;7.286;2022-12-07T07:40:38;99824.72;;;5.70;75.19
52855;BME280;38719;51.418;7.286;2022-12-07T07:43:06;99820.44;;;5.66;74.70
52855;BME280;38719;51.418;7.286;2022-12-07T07:45:34;99810.97;;;5.57;75.70
52855;BME280;38719;51.418;7.286;2022-12-07T07:48:02;99815.16;;;5.66;75.33
52855;BME280;38719;51.418;7.286;2022-12-07T07:50:29;99816.72;;;5.73;74.98
52855;BME280;38719;51.418;7.286;2022-12-07T07:52:57;99816.88;;;5.67;74.29
52855;BME280;38719;51.418;7.286;2022-12-07T07:55:24;99819.16;;;5.81;74.29
52855;BME280;38719;51.418;7.286;2022-12-07T07:57:52;99824.66;;;5.73;74.65
52855;BME280;38719;51.418;7.286;2022-12-07T08:00:22;99817.78;;;5.66;74.89
52855;BME280;38719;51.418;7.286;2022-12-07T08:02:50;99816.50;;;5.81;74.22
52855;BME280;38719;51.418;7.286;2022-12-07T08:05:17;99821.75;;;5.82;74.09
52855;BME280;38719;51.418;7.286;2022-12-07T08:07:45;99821.72;;;5.84;73.31
52855;BME280;38719;51.418;7.286;2022-12-07T08:10:13;99820.63;;;5.91;73.29
52855;BME280;38719;51.418;7.286;2022-12-07T08:12:42;99822.00;;;5.73;73.87
52855;BME280;38719;51.418;7.286;2022-12-07T08:15:30;99826.94;;;5.53;74.99
52855;BME280;38719;51.418;7.286;2022-12-07T08:17:58;99833.84;;;5.58;75.01
52855;BME280;38719;51.418;7.286;2022-12-07T08:20:26;99829.81;;;5.45;75.63
52855;BME280;38719;51.418;7.286;2022-12-07T08:22:53;99834.19;;;5.44;75.31
52855;BME280;38719;51.418;7.286;2022-12-07T08:25:21;99834.03;;;5.51;75.33
52855;BME280;38719;51.418;7.286;2022-12-07T08:27:50;99832.91;;;5.61;74.52
52855;BME280;38719;51.418;7.286;2022-12-07T08:30:19;99837.41;;;5.57;74.84
52855;BME280;38719;51.418;7.286;2022-12-07T08:32:48;99835.38;;;5.67;74.67
52855;BME280;38719;51.418;7.286;2022-12-07T08:35:16;99833.53;;;5.69;74.81
52855;BME280;38719;51.418;7.286;2022-12-07T08:37:45;99834.66;;;5.62;74.87
52855;BME280;38719;51.418;7.286;2022-12-07T08:40:13;99834.44;;;5.70;74.86
52855;BME280;38719;51.418;7.286;2022-12-07T08:42:42;99832.31;;;5.49;75.96
52855;BME280;38719;51.418;7.286;2022-12-07T08:45:12;99836.03;;;5.75;75.27
52855;BME280;38719;51.418;7.286;2022-12-07T08:47:44;99833.69;;;5.64;74.74
52855;BME280;38719;51.418;7.286;2022-12-07T08:50:14;99836.06;;;5.74;75.23
52855;BME280;38719;51.418;7.286;2022-12-07T08:52:42;99839.78;;;5.33;75.75
52855;BME280;38719;51.418;7.286;2022-12-07T08:55:11;99839.03;;;5.61;75.74
52855;BME280;38719;51.418;7.286;2022-12-07T08:57:39;99831.53;;;5.79;74.54
52855;BME280;38719;51.418;7.286;2022-12-07T09:00:09;99834.75;;;5.90;74.64
52855;BME280;38719;51.418;7.286;2022-12-07T09:02:37;99829.72;;;6.14;74.24
52855;BME280;38719;51.418;7.286;2022-12-07T09:05:05;99830.22;;;5.94;73.83
52855;BME280;38719;51.418;7.286;2022-12-07T09:07:44;99833.41;;;6.08;74.00
52855;BME280;38719;51.418;7.286;2022-12-07T09:10:13;99836.25;;;6.01;74.38
52855;BME280;38719;51.418;7.286;2022-12-07T09:12:40;99834.41;;;6.04;74.06
52855;BME280;38719;51.418;7.286;2022-12-07T09:15:08;99834.72;;;5.92;74.61
52855;BME280;38719;51.418;7.286;2022-12-07T09:17:36;99841.75;;;5.93;74.40
52855;BME280;38719;51.418;7.286;2022-12-07T09:20:05;99837.69;;;5.79;74.59
52855;BME280;38719;51.418;7.286;2022-12-07T09:22:33;99844.84;;;5.76;74.75
52855;BME280;38719;51.418;7.286;2022-12-07T09:25:03;99843.66;;;5.86;74.88
52855;BME280;38719;51.418;7.286;2022-12-07T09:27:31;99843.78;;;5.83;74.47
52855;BME280;38719;51.418;7.286;2022-12-07T09:29:58;99844.44;;;5.90;74.51
52855;BME280;38719;51.418;7.286;2022-12-07T09:32:27;99840.66;;;6.02;74.32
52855;BME280;38719;51.418;7.286;2022-12-07T09:34:54;99841.97;;;5.84;74.82
52855;BME280;38719;51.418;7.286;2022-12-07T09:37:22;99849.75;;;5.90;74.42
52855;BME280;38719;51.418;7.286;2022-12-07T09:39:50;99842.47;;;5.65;75.40
52855;BME280;38719;51.418;7.286;2022-12-07T09:42:27;99852.25;;;5.61;75.87
52855;BME280;38719;51.418;7.286;2022-12-07T09:44:56;99844.59;;;5.52;75.97
52855;BME280;38719;51.418;7.286;2022-12-07T09:47:25;99849.22;;;5.42;76.12
52855;BME280;38719;51.418;7.286;2022-12-07T09:49:55;99850.94;;;5.45;76.28
52855;BME280;38719;51.418;7.286;2022-12-07T09:52:28;99835.50;;;5.62;76.01
52855;BME280;38719;51.418;7.286;2022-12-07T09:55:09;99831.66;;;5.41;76.69
52855;BME280;38719;51.418;7.286;2022-12-07T09:57:39;99827.84;;;5.52;76.41
52855;BME280;38719;51.418;7.286;2022-12-07T10:00:12;99827.28;;;5.73;76.11
52855;BME280;38719;51.418;7.286;2022-12-07T10:02:42;99826.22;;;5.80;74.70
52855;BME280;38719;51.418;7.286;2022-12-07T10:05:13;99823.19;;;5.94;74.87
52855;BME280;38719;51.418;7.286;2022-12-07T10:07:49;99817.63;;;6.05;74.29
52855;BME280;38719;51.418;7.286;2022-12-07T10:10:24;99823.00;;;6.02;73.97
52855;BME280;38719;51.418;7.286;2022-12-07T10:12:56;99824.88;;;5.97;74.57
52855;BME280;38719;51.418;7.286;2022-12-07T10:15:41;99821.28;;;5.67;75.16
52855;BME280;38719;51.418;7.286;2022-12-07T10:18:26;99824.97;;;5.61;75.57
52855;BME280;38719;51.418;7.286;2022-12-07T10:21:03;99822.22;;;5.97;74.98
52855;BME280;38719;51.418;7.286;2022-12-07T10:23:34;99805.94;;;6.14;74.11
52855;BME280;38719;51.418;7.286;2022-12-07T10:26:20;99816.16;;;6.26;73.96
52855;BME280;38719;51.418;7.286;2022-12-07T10:28:50;99813.44;;;6.28;73.02
52855;BME280;38719;51.418;7.286;2022-12-07T10:31:19;99813.94;;;6.41;72.79
52855;BME280;38719;51.418;7.286;2022-12-07T10:33:52;99804.88;;;6.20;73.69
52855;BME280;38719;51.418;7.286;2022-12-07T10:36:23;99803.00;;;6.23;73.64
52855;BME280;38719;51.418;7.286;2022-12-07T10:38:53;99794.03;;;6.29;73.41
52855;BME280;38719;51.418;7.286;2022-12-07T10:41:25;99794.22;;;6.23;72.95
52855;BME280;38719;51.418;7.286;2022-12-07T10:43:56;99793.19;;;6.27;73.64
52855;BME280;38719;51.418;7.286;2022-12-07T10:46:45;99791.28;;;6.32;73.40
52855;BME280;38719;51.418;7.286;2022-12-07T10:49:34;99797.84;;;6.19;73.48
52855;BME280;38719;51.418;7.286;2022-12-07T10:52:13;99787.47;;;6.41;72.43
52855;BME280;38719;51.418;7.286;2022-12-07T10:54:50;99793.66;;;6.41;72.48
52855;BME280;38719;51.418;7.286;2022-12-07T10:57:30;99793.09;;;6.60;72.69
52855;BME280;38719;51.418;7.286;2022-12-07T11:00:14;99786.59;;;6.70;72.62
52855;BME280;38719;51.418;7.286;2022-12-07T11:03:03;99789.16;;;6.43;72.58
52855;BME280;38719;51.418;7.286;2022-12-07T11:05:39;99784.31;;;6.58;72.50
52855;BME280;38719;51.418;7.286;2022-12-07T11:08:14;99775.81;;;6.76;72.55
52855;BME280;38719;51.418;7.286;2022-12-07T11:10:50;99784.31;;;6.86;71.04
52855;BME280;38719;51.418;7.286;2022-12-07T11:13:26;99776.69;;;6.77;71.21
52855;BME280;38719;51.418;7.286;2022-12-07T11:16:04;99778.06;;;6.89;71.85
52855;BME280;38719;51.418;7.286;2022-12-07T11:18:43;99775.41;;;6.62;71.25
52855;BME280;38719;51.418;7.286;2022-12-07T11:21:22;99781.22;;;6.72;72.15
52855;BME280;38719;51.418;7.286;2022-12-07T11:23:58;99765.16;;;6.78;71.87
52855;BME280;38719;51.418;7.286;2022-12-07T11:26:39;99774.59;;;6.87;71.38
52855;BME280;38719;51.418;7.286;2022-12-07T11:29:21;99762.75;;;6.70;71.51
52855;BME280;38719;51.418;7.286;2022-12-07T11:32:00;99762.56;;;6.76;71.55
52855;BME280;38719;51.418;7.286;2022-12-07T11:34:36;99752.25;;;6.96;70.86
52855;BME280;38719;51.418;7.286;2022-12-07T11:37:13;99753.72;;;7.04;70.53
52855;BME280;38719;51.418;7.286;2022-12-07T11:39:47;99743.94;;;7.06;70.04
52855;BME280;38719;51.418;7.286;2022-12-07T11:42:21;99738.28;;;6.90;71.13
52855;BME280;38719;51.418;7.286;2022-12-07T11:44:53;99741.13;;;6.84;70.50
52855;BME280;38719;51.418;7.286;2022-12-07T11:47:30;99735.44;;;6.70;71.50
52855;BME280;38719;51.418;7.286;2022-12-07T11:50:18;99738.13;;;6.95;71.31
52855;BME280;38719;51.418;7.286;2022-12-07T11:52:53;99726.13;;;7.12;71.34
52855;BME280;38719;51.418;7.286;2022-12-07T11:55:26;99728.38;;;6.97;70.92
52855;BME280;38719;51.418;7.286;2022-12-07T11:58:02;99730.19;;;6.95;71.05
52855;BME280;38719;51.418;7.286;2022-12-07T12:00:32;99721.84;;;7.07;70.49
52855;BME280;38719;51.418;7.286;2022-12-07T12:03:11;99731.09;;;6.94;71.06
52855;BME280;38719;51.418;7.286;2022-12-07T12:05:40;99726.56;;;6.99;70.33
52855;BME280;38719;51.418;7.286;2022-12-07T12:08:14;99729.56;;;6.88;70.70
52855;BME280;38719;51.418;7.286;2022-12-07T12:11:17;99734.06;;;6.85;70.55
52855;BME280;38719;51.418;7.286;2022-12-07T12:14:08;99731.41;;;6.58;71.33
52855;BME280;38719;51.418;7.286;2022-12-07T12:17:20;99730.56;;;6.56;71.61
52855;BME280;38719;51.418;7.286;2022-12-07T12:20:05;99733.78;;;6.39;72.10
52855;BME280;38719;51.418;7.286;2022-12-07T12:22:37;99721.53;;;6.36;72.14
52855;BME280;38719;51.418;7.286;2022-12-07T12:25:21;99725.34;;;6.26;73.02
52855;BME280;38719;51.418;7.286;2022-12-07T12:27:52;99724.56;;;6.51;73.04
52855;BME280;38719;51.418;7.286;2022-12-07T12:30:33;99728.31;;;6.43;72.20
52855;BME280;38719;51.418;7.286;2022-12-07T12:33:04;99723.28;;;6.36;72.50
52855;BME280;38719;51.418;7.286;2022-12-07T12:35:36;99718.38;;;6.52;72.99
52855;BME280;38719;51.418;7.286;2022-12-07T12:45:05;99707.34;;;6.92;71.35
52855;BME280;38719;51.418;7.286;2022-12-07T12:47:53;99708.16;;;6.68;71.52
52855;BME280;38719;51.418;7.286;2022-12-07T12:50:27;99699.91;;;6.50;71.60
52855;BME280;38719;51.418;7.286;2022-12-07T12:53:15;99706.22;;;6.73;71.23
52855;BME280;38719;51.418;7.286;2022-12-07T12:56:09;99700.38;;;6.90;71.48
52855;BME280;38719;51.418;7.286;2022-12-07T12:58:40;99701.84;;;6.72;70.85
52855;BME280;38719;51.418;7.286;2022-12-07T13:01:33;99691.47;;;6.66;71.03
52855;BME280;38719;51.418;7.286;2022-12-07T13:06:59;99696.69;;;6.94;70.08
52855;BME280;38719;51.418;7.286;2022-12-07T13:09:30;99696.09;;;6.86;70.62
52855;BME280;38719;51.418;7.286;2022-12-07T13:12:02;99687.50;;;6.79;70.82
52855;BME280;38719;51.418;7.286;2022-12-07T13:14:53;99694.31;;;6.86;71.51
52855;BME280;38719;51.418;7.286;2022-12-07T13:17:57;99693.91;;;6.99;70.46
52855;BME280;38719;51.418;7.286;2022-12-07T13:20:49;99685.22;;;7.20;70.47
52855;BME280;38719;51.418;7.286;2022-12-07T13:23:23;99684.28;;;7.21;70.04
52855;BME280;38719;51.418;7.286;2022-12-07T13:25:59;99685.66;;;7.08;70.44
52855;BME280;38719;51.418;7.286;2022-12-07T13:28:35;99680.28;;;7.09;69.69
52855;BME280;38719;51.418;7.286;2022-12-07T13:31:25;99664.47;;;7.08;69.92
52855;BME280;38719;51.418;7.286;2022-12-07T13:34:29;99668.31;;;6.99;69.57
52855;BME280;38719;51.418;7.286;2022-12-07T13:37:00;99661.97;;;7.03;69.63
52855;BME280;38719;51.418;7.286;2022-12-07T13:39:28;99668.13;;;6.78;69.94
52855;BME280;38719;51.418;7.286;2022-12-07T13:41:58;99667.00;;;6.86;70.10
52855;BME280;38719;51.418;7.286;2022-12-07T13:44:27;99652.78;;;6.61;70.23
52855;BME280;38719;51.418;7.286;2022-12-07T13:47:04;99658.38;;;6.79;70.93